Cottonwood, Alabama
Current Conditions -  °F | °C
As of 3:53 PM on Tuesday 21 Oct 2014 (Local Time) from KMAI Reporting Station
Clear Clear  
Wind Chill: 80°   Ceiling: Unl
Heat Index: 80°   Visibility: 10mi
Dew Point: 51°   Wind: 7mph
Humidity: 36%   Direction: NA
Pressure: 29.93"   Gusts: NA
Location:  31.05°N, 85.3°W
Report Text: KMAI 212053Z AUTO VRB06KT 10SM CLR 27/11 A2993 RMK AO2 SLP135 T02670106 56016
Loading
Personal Weather Stations






























Interactive Weather Map
Tropical Storm Tracking
New forecast layout! Learn more

10-Day Weather Forecast

Advertisements
Track Severe Weather on mobile